Time;durP1;ratioP1;P1;durP2;ratioP2;P2;SDS_P1;SDS_P2;PMS_P1;PMS_P2;Temp;Humidity;BMP_temperature;BMP_pressure;BME280_temperature;BME280_humidity;BME280_pressure;Samples;Min_cycle;Max_cycle;Signal;HPM_P1;HPM_P2
2022/09/04 00:01:57;;;;;;;4.60;4.20;;;;;;;22.90;73.23;99740.81;4995147;28;20183;-71
2022/09/04 00:04:33;;;;;;;4.40;4.20;;;;;;;22.89;73.41;99741.91;4995475;28;20252;-71
2022/09/04 00:07:11;;;;;;;4.90;4.47;;;;;;;22.84;73.33;99744.63;4995032;28;20194;-71
2022/09/04 00:09:47;;;;;;;4.50;4.30;;;;;;;22.80;73.48;99748.94;4994305;28;20194;-71
2022/09/04 00:12:22;;;;;;;4.17;3.97;;;;;;;22.85;73.44;99754.38;4995195;28;20230;-71
2022/09/04 00:14:54;;;;;;;4.17;3.97;;;;;;;22.84;73.16;99757.34;4995043;28;20650;-71
2022/09/04 00:17:28;;;;;;;4.43;4.23;;;;;;;22.64;74.22;99760.00;4995184;28;20191;-71
2022/09/04 00:20:00;;;;;;;4.70;4.40;;;;;;;22.35;75.39;99756.94;4994789;28;20609;-71
2022/09/04 00:22:34;;;;;;;4.80;4.47;;;;;;;22.32;75.44;99773.69;4994172;28;20674;-71
2022/09/04 00:25:09;;;;;;;4.90;4.50;;;;;;;22.07;76.78;99770.88;4994313;28;20244;-71
2022/09/04 00:27:44;;;;;;;4.80;4.40;;;;;;;22.25;76.15;99773.13;4994571;28;20246;-71
2022/09/04 00:30:14;;;;;;;4.37;4.07;;;;;;;22.44;75.41;99766.16;4994416;28;20194;-72
2022/09/04 00:32:47;;;;;;;4.87;4.57;;;;;;;22.55;75.42;99781.41;4995430;28;20225;-71
2022/09/04 00:35:18;;;;;;;4.73;4.43;;;;;;;22.61;75.02;99784.91;4994210;28;20613;-72
2022/09/04 00:37:51;;;;;;;4.63;4.33;;;;;;;22.65;74.65;99789.53;4994697;28;20194;-72
2022/09/04 00:40:26;;;;;;;5.07;4.40;;;;;;;22.76;74.17;99791.19;4994113;28;20186;-72
2022/09/04 00:43:14;;;;;;;4.53;4.23;;;;;;;22.84;74.47;99790.66;4994236;28;20212;-72
2022/09/04 00:45:55;;;;;;;4.43;4.23;;;;;;;22.79;74.56;99796.06;4993983;28;20670;-72
2022/09/04 00:48:40;;;;;;;4.80;4.40;;;;;;;22.74;75.28;99804.19;4995316;28;20673;-72
2022/09/04 00:51:22;;;;;;;4.70;4.50;;;;;;;22.81;74.70;99803.91;4994246;28;20261;-73
2022/09/04 00:54:04;;;;;;;4.93;4.63;;;;;;;22.85;74.11;99803.13;4994190;28;20659;-72
2022/09/04 00:56:55;;;;;;;4.67;4.37;;;;;;;22.87;74.35;99798.25;4994391;28;20225;-72
2022/09/04 00:59:42;;;;;;;4.97;4.57;;;;;;;22.89;74.74;99806.09;4994026;28;20249;-72
2022/09/04 01:02:17;;;;;;;4.77;4.53;;;;;;;22.89;74.19;99804.22;4994364;28;20190;-71
2022/09/04 01:04:58;;;;;;;4.27;3.97;;;;;;;22.91;74.40;99798.53;4993936;28;20611;-71
2022/09/04 01:07:41;;;;;;;5.03;4.63;;;;;;;22.86;75.05;99806.63;4993451;28;20573;-72
2022/09/04 01:10:35;;;;;;;4.93;4.73;;;;;;;22.84;75.59;99809.63;4994143;28;20201;-71
2022/09/04 01:13:09;;;;;;;4.60;4.30;;;;;;;22.82;75.77;99811.78;4993558;28;20658;-72
2022/09/04 01:15:43;;;;;;;4.83;4.43;;;;;;;22.81;75.43;99810.16;4993746;28;20182;-72
2022/09/04 01:18:15;;;;;;;4.70;4.40;;;;;;;22.84;75.45;99817.75;4993475;28;20790;-72
2022/09/04 01:21:10;;;;;;;4.53;4.30;;;;;;;22.86;74.24;99820.19;4993682;28;20191;-72
2022/09/04 01:23:52;;;;;;;5.30;5.00;;;;;;;22.87;74.03;99819.13;4993587;28;20210;-72
2022/09/04 01:26:31;;;;;;;5.30;5.10;;;;;;;22.87;73.91;99819.91;4993715;28;20322;-71
2022/09/04 01:29:12;;;;;;;5.17;4.70;;;;;;;22.87;73.88;99814.50;4993739;28;20261;-71
2022/09/04 01:31:45;;;;;;;5.33;4.93;;;;;;;22.91;73.80;99812.09;4993382;28;20626;-71
2022/09/04 01:34:29;;;;;;;5.30;4.90;;;;;;;22.72;75.21;99806.34;4993461;28;20261;-71
2022/09/04 01:37:03;;;;;;;5.27;4.87;;;;;;;22.71;75.76;99809.31;4993177;28;20237;-72
2022/09/04 01:39:33;;;;;;;5.00;4.60;;;;;;;22.73;75.91;99807.97;4993185;28;20193;-72
2022/09/04 01:42:11;;;;;;;5.50;5.10;;;;;;;22.71;75.78;99810.13;4992928;28;20651;-72
2022/09/04 01:44:37;;;;;;;5.63;5.33;;;;;;;22.64;75.84;99809.59;4993101;28;20218;-72
2022/09/04 01:47:14;;;;;;;5.97;5.33;;;;;;;22.56;76.55;99810.09;4993145;28;20261;-72
2022/09/04 01:49:48;;;;;;;7.03;5.37;;;;;;;22.54;76.84;99812.25;4993328;28;20190;-72
2022/09/04 01:52:35;;;;;;;6.17;5.87;;;;;;;22.54;77.20;99814.16;4993317;28;20246;-73
2022/09/04 01:55:11;;;;;;;5.30;4.87;;;;;;;22.51;78.10;99810.09;4993031;28;20186;-73
2022/09/04 01:57:54;;;;;;;5.93;5.23;;;;;;;22.48;78.18;99821.44;4993191;28;20620;-72
2022/09/04 02:00:23;;;;;;;5.87;5.57;;;;;;;22.40;78.30;99819.22;4993102;28;20241;-72
2022/09/04 02:02:56;;;;;;;5.73;5.33;;;;;;;22.26;79.33;99818.03;4992545;28;20230;-72
2022/09/04 02:05:31;;;;;;;6.37;5.90;;;;;;;22.21;79.68;99833.47;4992918;28;20183;-72
2022/09/04 02:08:18;;;;;;;5.97;5.50;;;;;;;22.14;80.42;99836.41;4993038;28;20190;-72
2022/09/04 02:10:55;;;;;;;6.37;5.97;;;;;;;22.01;81.16;99831.44;4994275;28;20218;-71
2022/09/04 02:13:32;;;;;;;6.10;5.70;;;;;;;21.90;81.65;99840.59;4993392;28;20191;-72
2022/09/04 02:16:09;;;;;;;5.80;5.50;;;;;;;21.76;82.26;99825.88;4992798;28;20186;-71
2022/09/04 02:18:49;;;;;;;6.20;5.73;;;;;;;21.77;82.36;99832.13;4992814;28;20186;-72
2022/09/04 02:21:25;;;;;;;5.93;5.53;;;;;;;21.74;82.72;99827.22;4972974;28;20710;-72
2022/09/04 02:24:01;;;;;;;6.40;6.00;;;;;;;21.67;82.56;99818.47;4973582;28;20207;-72
2022/09/04 02:26:33;;;;;;;6.27;5.80;;;;;;;21.54;83.24;99819.75;4974523;28;20642;-72
2022/09/04 02:29:08;;;;;;;6.00;5.63;;;;;;;21.53;83.36;99810.03;4975115;28;20195;-71
2022/09/04 02:31:43;;;;;;;5.33;5.13;;;;;;;21.54;83.54;99808.94;4974809;28;20187;-72
2022/09/04 02:34:16;;;;;;;5.97;5.57;;;;;;;21.57;83.44;99813.84;4973924;28;20194;-72
2022/09/04 02:36:50;;;;;;;6.03;5.73;;;;;;;21.61;83.07;99812.25;4973300;28;20665;-73
2022/09/04 02:39:34;;;;;;;6.20;5.63;;;;;;;21.61;83.10;99814.94;4973657;28;20247;-72
2022/09/04 02:42:09;;;;;;;6.57;5.93;;;;;;;21.66;82.91;99823.09;4972941;28;20717;-72
2022/09/04 02:44:46;;;;;;;6.17;5.63;;;;;;;21.64;83.11;99809.00;4975905;28;20291;-72
2022/09/04 02:47:23;;;;;;;6.43;5.83;;;;;;;21.64;82.62;99808.19;4976796;28;20203;-73
2022/09/04 02:50:01;;;;;;;6.60;6.10;;;;;;;21.56;83.01;99814.88;4977529;28;20190;-72
2022/09/04 02:52:55;;;;;;;6.17;5.77;;;;;;;21.51;84.02;99822.97;4977466;28;20328;-72
2022/09/04 02:55:34;;;;;;;5.90;5.60;;;;;;;21.51;83.94;99822.97;4976559;28;20643;-72
2022/09/04 02:58:13;;;;;;;6.03;5.73;;;;;;;21.55;83.72;99823.28;4976736;28;20710;-72
2022/09/04 03:00:54;;;;;;;5.50;5.20;;;;;;;21.52;83.57;99816.47;4977675;28;20199;-73
2022/09/04 03:03:27;;;;;;;6.60;6.30;;;;;;;21.25;84.46;99810.31;4976996;28;20215;-73
2022/09/04 03:06:01;;;;;;;6.17;5.87;;;;;;;21.30;84.77;99826.56;4977415;28;20191;-73
2022/09/04 03:08:35;;;;;;;6.80;6.13;;;;;;;21.24;84.60;99824.91;4977067;28;20274;-72
2022/09/04 03:11:08;;;;;;;7.17;6.57;;;;;;;21.14;85.08;99829.41;4976361;28;20649;-72
2022/09/04 03:13:42;;;;;;;7.47;6.83;;;;;;;21.16;85.44;99822.69;4976619;28;20668;-72
2022/09/04 03:16:19;;;;;;;7.07;6.47;;;;;;;21.14;85.58;99822.09;4976441;28;20254;-73
2022/09/04 03:19:06;;;;;;;6.67;6.37;;;;;;;21.17;85.80;99832.41;4976608;28;20187;-73
2022/09/04 03:21:41;;;;;;;6.73;6.30;;;;;;;21.08;85.40;99831.25;4995985;28;20273;-73
2022/09/04 03:24:13;;;;;;;7.30;6.90;;;;;;;20.86;86.37;99826.94;4995975;28;20210;-72
2022/09/04 03:26:45;;;;;;;7.73;7.00;;;;;;;20.89;87.21;99827.22;4995602;28;20286;-73
2022/09/04 03:29:23;;;;;;;7.50;6.90;;;;;;;20.90;86.90;99828.84;4995854;28;20197;-72
2022/09/04 03:32:05;;;;;;;7.63;6.97;;;;;;;20.90;87.09;99830.75;4996163;28;20277;-72
2022/09/04 03:34:43;;;;;;;6.97;6.60;;;;;;;20.92;87.08;99837.56;4996751;28;20254;-72
2022/09/04 03:37:26;;;;;;;7.87;7.37;;;;;;;20.88;86.94;99840.97;4995618;28;20199;-72
2022/09/04 03:40:06;;;;;;;7.23;6.83;;;;;;;20.90;87.06;99841.56;4995869;28;20190;-71
2022/09/04 03:42:50;;;;;;;8.70;8.00;;;;;;;20.89;87.18;99838.03;4995277;28;20182;-71
2022/09/04 03:45:25;;;;;;;6.90;6.50;;;;;;;20.90;87.10;99845.06;4995542;28;20682;-71
2022/09/04 03:48:08;;;;;;;8.33;7.43;;;;;;;20.86;87.05;99843.94;4995287;28;20717;-72
2022/09/04 03:50:44;;;;;;;7.80;7.00;;;;;;;20.91;87.15;99849.44;4995178;28;20689;-72
2022/09/04 03:53:21;;;;;;;7.10;6.37;;;;;;;20.92;86.88;99851.06;4995109;28;20639;-72
2022/09/04 03:56:24;;;;;;;7.47;7.07;;;;;;;20.93;87.00;99850.00;4994600;28;20187;-72
2022/09/04 03:59:00;;;;;;;8.00;7.10;;;;;;;20.88;87.35;99851.78;4994933;28;20669;-73
2022/09/04 04:01:40;;;;;;;7.80;7.20;;;;;;;20.88;87.59;99858.03;4995413;28;20620;-72
2022/09/04 04:04:34;;;;;;;7.40;6.80;;;;;;;20.84;88.54;99870.41;4994748;28;20209;-72
2022/09/04 04:07:07;;;;;;;7.53;6.90;;;;;;;20.81;88.25;99872.75;4994636;28;20675;-71
2022/09/04 04:09:49;;;;;;;8.13;7.53;;;;;;;20.77;89.16;99877.03;4994683;28;20627;-72
2022/09/04 04:12:50;;;;;;;7.67;7.00;;;;;;;20.80;88.88;99881.94;4994732;28;20241;-73
2022/09/04 04:15:31;;;;;;;8.10;7.30;;;;;;;20.85;88.60;99885.53;4994802;28;20199;-72
2022/09/04 04:18:30;;;;;;;7.50;6.97;;;;;;;20.90;88.13;99898.28;4995277;28;20256;-72
2022/09/04 04:21:05;;;;;;;7.13;6.63;;;;;;;20.91;88.70;99900.75;4994558;28;20190;-71
2022/09/04 04:24:00;;;;;;;7.47;6.73;;;;;;;20.94;88.45;99904.84;4994356;28;20272;-72
2022/09/04 04:26:39;;;;;;;7.67;7.07;;;;;;;21.01;88.27;99908.13;4987486;28;20206;-72
2022/09/04 04:29:39;;;;;;;7.63;6.93;;;;;;;21.05;88.40;99911.97;4994530;28;20191;-73
2022/09/04 04:32:36;;;;;;;7.97;7.40;;;;;;;21.09;87.55;99910.38;4980713;28;20202;-73
2022/09/04 04:35:23;;;;;;;6.83;6.43;;;;;;;21.15;87.36;99912.88;4969274;28;20203;-70
2022/09/04 04:38:02;;;;;;;7.00;6.53;;;;;;;21.17;87.26;99905.38;4994257;28;20642;-72
2022/09/04 04:40:44;;;;;;;7.77;7.07;;;;;;;21.07;86.74;99921.44;4994321;28;20647;-72
2022/09/04 04:43:19;;;;;;;7.97;7.37;;;;;;;21.07;87.47;99920.66;4994224;28;20282;-71
2022/09/04 04:45:55;;;;;;;8.87;7.17;;;;;;;21.17;87.14;99921.56;4993739;28;20244;-71
2022/09/04 04:49:04;;;;;;;7.73;6.90;;;;;;;21.26;86.70;99936.25;4994149;28;20202;-72
2022/09/04 04:51:58;;;;;;;7.23;6.63;;;;;;;21.36;85.59;99936.34;4994428;28;20190;-71
2022/09/04 04:54:46;;;;;;;6.57;6.17;;;;;;;21.41;84.67;99941.81;4994099;28;20199;-71
2022/09/04 04:57:25;;;;;;;7.00;6.03;;;;;;;21.42;84.21;99939.91;4994003;28;20278;-72
2022/09/04 05:00:05;;;;;;;6.73;6.33;;;;;;;21.50;83.43;99951.09;4994203;28;20673;-72
2022/09/04 05:02:41;;;;;;;5.67;5.37;;;;;;;21.58;83.33;99950.66;4995129;28;20186;-73
2022/09/04 05:05:14;;;;;;;5.57;5.27;;;;;;;21.69;82.83;99946.97;4993623;28;20756;-73
2022/09/04 05:07:48;;;;;;;5.97;5.57;;;;;;;21.79;81.85;99949.78;4993069;28;20186;-73
2022/09/04 05:10:21;;;;;;;5.50;4.90;;;;;;;21.81;81.64;99950.31;4993232;28;20191;-72
2022/09/04 05:13:04;;;;;;;5.80;5.50;;;;;;;21.91;81.50;99955.84;4994250;28;20190;-72
2022/09/04 05:15:38;;;;;;;11.53;5.47;;;;;;;21.84;81.04;99966.06;4993653;28;20187;-73
2022/09/04 05:18:11;;;;;;;6.03;5.23;;;;;;;21.85;81.20;99975.78;4993359;28;20187;-72
2022/09/04 05:20:44;;;;;;;6.23;5.63;;;;;;;21.89;79.96;99979.59;4993499;28;20250;-73
2022/09/04 05:23:22;;;;;;;5.83;5.43;;;;;;;21.96;80.00;99979.44;4993638;28;20721;-72
2022/09/04 05:25:57;;;;;;;5.47;5.00;;;;;;;22.04;79.56;99987.88;4993207;28;20211;-73
2022/09/04 05:28:34;;;;;;;7.13;5.47;;;;;;;22.08;78.94;99994.41;4994448;28;20236;-72
2022/09/04 05:31:11;;;;;;;5.47;5.07;;;;;;;21.96;79.52;99993.75;4993078;28;20551;-72
2022/09/04 05:33:44;;;;;;;6.13;5.57;;;;;;;21.89;79.12;99995.03;4993148;28;20637;-72
2022/09/04 05:36:21;;;;;;;4.97;4.67;;;;;;;22.00;79.09;100008.41;4993130;28;20191;-72
2022/09/04 05:38:59;;;;;;;4.67;4.47;;;;;;;22.09;78.11;100012.25;4992925;28;20186;-72
2022/09/04 05:41:39;;;;;;;4.90;4.60;;;;;;;22.08;78.35;100010.63;4993045;28;20621;-72
2022/09/04 05:44:30;;;;;;;5.40;5.10;;;;;;;22.13;77.42;99999.84;4993240;28;20211;-72
2022/09/04 05:47:09;;;;;;;5.23;4.87;;;;;;;22.25;77.66;100005.09;4992905;28;20249;-72
2022/09/04 05:50:01;;;;;;;6.00;5.43;;;;;;;22.31;76.87;100006.75;4992979;28;20190;-73
2022/09/04 05:52:47;;;;;;;5.53;4.70;;;;;;;22.29;76.89;100008.91;4993196;28;20207;-73
2022/09/04 05:55:36;;;;;;;5.20;4.90;;;;;;;22.39;76.86;100004.38;4993338;28;20190;-72
2022/09/04 05:58:21;;;;;;;6.37;5.87;;;;;;;22.29;76.34;100006.22;4993740;28;20206;-71
2022/09/04 06:01:01;;;;;;;7.43;4.77;;;;;;;22.26;77.03;100015.63;4992574;28;20195;-71
2022/09/04 06:03:50;;;;;;;6.00;5.40;;;;;;;22.61;76.69;100010.50;4992240;28;20698;-74
2022/09/04 06:06:22;;;;;;;5.67;5.27;;;;;;;22.96;75.72;100013.44;4992968;28;20302;-71
2022/09/04 06:09:19;;;;;;;4.67;4.47;;;;;;;23.42;74.35;100012.56;4992486;28;20195;-72
2022/09/04 06:12:07;;;;;;;5.50;5.10;;;;;;;23.80;71.70;100009.38;4992652;28;20200;-72
2022/09/04 06:15:06;;;;;;;6.07;5.67;;;;;;;24.08;69.77;100011.63;4992915;28;20245;-69
2022/09/04 06:17:48;;;;;;;5.50;5.00;;;;;;;24.04;68.97;100018.66;4992238;28;20625;-70
2022/09/04 06:20:47;;;;;;;6.43;5.60;;;;;;;23.68;69.95;100016.94;4992220;28;20196;-68
2022/09/04 06:23:29;;;;;;;5.70;5.30;;;;;;;23.63;70.67;100008.81;4993737;28;20192;-70
2022/09/04 06:26:40;;;;;;;5.00;4.70;;;;;;;24.09;70.53;100015.94;4992185;28;20212;-71
2022/09/04 06:29:51;;;;;;;5.20;4.90;;;;;;;24.22;68.00;100009.97;4955657;28;20195;-70
2022/09/04 06:32:47;;;;;;;4.70;4.30;;;;;;;24.53;68.91;100003.44;4939455;28;20208;-71
2022/09/04 06:35:29;;;;;;;4.80;4.50;;;;;;;24.96;66.42;100008.22;4992163;28;20207;-71
2022/09/04 06:38:07;;;;;;;6.13;4.60;;;;;;;25.23;66.42;100012.50;4991738;28;20194;-73
2022/09/04 06:40:57;;;;;;;4.90;4.50;;;;;;;25.43;64.81;100015.16;4991850;28;20205;-71
2022/09/04 06:43:32;;;;;;;5.07;4.63;;;;;;;25.71;64.58;100017.16;4992640;28;20273;-67
2022/09/04 06:46:15;;;;;;;6.43;4.90;;;;;;;26.01;63.37;100025.16;4991573;28;20732;-72
2022/09/04 06:48:54;;;;;;;6.23;4.60;;;;;;;26.19;63.06;100013.56;4991943;28;20191;-70
2022/09/04 06:51:34;;;;;;;7.67;5.23;;;;;;;26.22;61.98;100013.00;4992194;28;20193;-71
2022/09/04 06:54:16;;;;;;;5.00;4.43;;;;;;;26.24;61.73;100008.06;4991711;28;20717;-69
2022/09/04 06:57:01;;;;;;;5.37;4.93;;;;;;;26.25;62.31;100004.28;4992224;28;20225;-71
2022/09/04 06:59:47;;;;;;;4.90;4.60;;;;;;;26.22;61.24;100004.84;4992192;28;20189;-71
2022/09/04 07:02:30;;;;;;;5.13;4.83;;;;;;;25.95;61.82;100012.66;4991835;28;20741;-67
2022/09/04 07:05:11;;;;;;;6.90;4.70;;;;;;;25.84;62.48;100002.94;4992283;28;20309;-72
2022/09/04 07:07:46;;;;;;;5.60;5.10;;;;;;;25.75;62.64;99989.09;4991942;28;20741;-72
2022/09/04 07:10:17;;;;;;;5.83;5.43;;;;;;;25.54;62.98;99986.78;4992188;28;20268;-69
2022/09/04 07:13:13;;;;;;;5.47;5.10;;;;;;;25.97;63.12;99994.16;4991821;28;20190;-72
2022/09/04 07:16:15;;;;;;;5.73;5.33;;;;;;;25.29;64.92;99984.19;4981803;28;20563;-70
2022/09/04 07:19:16;;;;;;;5.13;4.83;;;;;;;24.98;66.23;99988.13;4990971;28;20201;-70
2022/09/04 07:21:51;;;;;;;6.07;5.30;;;;;;;25.25;64.55;99988.53;4972274;28;20197;-72
2022/09/04 07:24:43;;;;;;;5.77;5.27;;;;;;;25.58;63.94;99996.00;4955545;28;20717;-68
2022/09/04 07:27:15;;;;;;;6.13;4.87;;;;;;;26.10;62.71;100004.38;4978102;28;20236;-70
2022/09/04 07:29:50;;;;;;;6.43;5.30;;;;;;;25.65;62.89;99985.63;4992632;28;20205;-70
2022/09/04 07:32:22;;;;;;;5.67;4.97;;;;;;;26.36;61.86;99983.97;4993704;28;20669;-69
2022/09/04 07:34:56;;;;;;;5.83;5.40;;;;;;;27.03;58.90;99989.31;4994528;28;20668;-68
2022/09/04 07:37:35;;;;;;;5.20;4.70;;;;;;;27.50;57.98;99994.69;4993790;28;20201;-71
2022/09/04 07:40:10;;;;;;;5.47;5.20;;;;;;;27.70;55.54;99997.13;4995537;28;20609;-68
2022/09/04 07:42:45;;;;;;;5.83;5.43;;;;;;;27.61;55.73;100004.38;4994672;28;20560;-70
2022/09/04 07:45:23;;;;;;;8.60;5.67;;;;;;;27.76;57.05;99993.25;4995219;28;20257;-72
2022/09/04 07:47:57;;;;;;;4.97;4.60;;;;;;;27.74;54.73;99995.44;4992615;28;20758;-69
2022/09/04 07:50:31;;;;;;;5.30;4.90;;;;;;;27.95;54.89;100004.97;5001147;28;20196;-70
2022/09/04 07:53:13;;;;;;;5.63;5.33;;;;;;;27.91;54.25;100007.50;5012125;28;20190;-71
2022/09/04 07:55:45;;;;;;;7.83;4.63;;;;;;;28.04;55.42;100012.19;5012549;28;20284;-72
2022/09/04 07:58:48;;;;;;;9.43;5.00;;;;;;;28.40;54.60;100020.63;5011493;28;20190;-72
2022/09/04 08:01:31;;;;;;;5.07;4.30;;;;;;;28.84;54.43;100020.94;5012573;28;20676;-71
2022/09/04 08:04:29;;;;;;;5.60;5.17;;;;;;;29.04;50.67;100021.38;5013183;28;20197;-70
2022/09/04 08:06:59;;;;;;;6.00;5.00;;;;;;;29.14;51.44;100025.84;5013102;28;20654;-71
2022/09/04 08:09:46;;;;;;;5.67;5.17;;;;;;;29.17;52.46;100019.75;5014242;28;20202;-70
2022/09/04 08:12:37;;;;;;;5.03;4.50;;;;;;;29.41;51.31;100030.47;5014395;28;20202;-71
2022/09/04 08:15:16;;;;;;;5.47;5.00;;;;;;;29.64;50.21;100030.25;5014211;28;20209;-73
2022/09/04 08:18:10;;;;;;;5.53;5.13;;;;;;;29.55;50.19;100028.53;5015500;28;20190;-72
2022/09/04 08:20:43;;;;;;;6.13;5.60;;;;;;;29.38;50.44;100015.47;4994796;28;20206;-73
2022/09/04 08:23:41;;;;;;;5.67;4.93;;;;;;;29.21;50.54;100020.78;4972462;28;20228;-71
2022/09/04 08:26:19;;;;;;;7.07;6.07;;;;;;;29.41;51.09;100012.13;4999405;28;20580;-75
2022/09/04 08:29:01;;;;;;;6.23;5.90;;;;;;;29.46;49.30;100009.28;4993424;28;20197;-72
2022/09/04 08:31:31;;;;;;;5.93;5.40;;;;;;;29.45;50.06;100004.09;4982391;28;20713;-69
2022/09/04 08:34:28;;;;;;;6.20;5.63;;;;;;;29.52;50.24;100009.97;4998356;28;20201;-71
2022/09/04 08:37:05;;;;;;;6.40;5.97;;;;;;;29.92;49.31;100015.34;4972767;28;20218;-70
2022/09/04 08:39:45;;;;;;;6.90;6.13;;;;;;;30.13;48.63;100010.22;4990452;28;20193;-70
2022/09/04 08:42:56;;;;;;;6.77;6.30;;;;;;;30.35;47.03;100007.47;4984693;28;20205;-73
2022/09/04 08:45:48;;;;;;;5.97;5.67;;;;;;;30.24;47.74;100006.94;4981046;28;20277;-70
2022/09/04 08:48:53;;;;;;;11.87;6.57;;;;;;;30.40;47.02;100010.91;4984383;28;20873;-75
2022/09/04 08:51:55;;;;;;;7.23;6.83;;;;;;;30.44;47.46;100005.59;4964429;28;20316;-70
2022/09/04 08:55:01;;;;;;;9.00;8.53;;;;;;;30.48;48.58;99995.63;4989034;28;20578;-70
2022/09/04 08:58:04;;;;;;;11.13;10.13;;;;;;;30.70;47.80;100003.84;4986751;28;20201;-70
2022/09/04 09:00:43;;;;;;;11.47;10.50;;;;;;;30.58;48.73;99996.16;4956369;28;20618;-73
2022/09/04 09:03:41;;;;;;;7.77;6.60;;;;;;;30.37;46.08;99997.81;4989838;28;20555;-71
2022/09/04 09:06:53;;;;;;;7.63;7.13;;;;;;;29.08;49.23;99992.28;4990158;28;20288;-66
2022/09/04 09:09:54;;;;;;;8.20;7.53;;;;;;;29.11;49.82;99988.13;4989239;28;20682;-68
2022/09/04 09:12:51;;;;;;;8.60;7.80;;;;;;;28.55;51.24;99990.31;4954378;28;20205;-68
2022/09/04 09:15:49;;;;;;;8.17;7.40;;;;;;;28.61;51.68;100005.50;4989797;28;20205;-75
2022/09/04 09:18:35;;;;;;;7.17;6.63;;;;;;;29.13;50.20;99991.38;5003586;28;20221;-70
2022/09/04 09:21:08;;;;;;;9.07;6.90;;;;;;;29.53;48.25;99989.69;4998718;28;20214;-74
2022/09/04 09:24:01;;;;;;;8.23;7.60;;;;;;;29.77;47.68;100004.78;4992760;28;20647;-69
2022/09/04 09:26:29;;;;;;;9.27;7.80;;;;;;;29.79;48.37;99982.53;4997474;28;20295;-73
2022/09/04 09:29:42;;;;;;;7.40;6.63;;;;;;;30.26;48.57;99993.72;4986498;28;20289;-69
2022/09/04 09:32:53;;;;;;;7.03;6.70;;;;;;;30.54;47.01;99999.84;4956570;28;20683;-69
2022/09/04 09:36:05;;;;;;;7.83;7.23;;;;;;;30.50;45.89;100015.31;4967973;28;20210;-68
2022/09/04 09:39:22;;;;;;;7.20;6.80;;;;;;;30.31;47.62;100017.44;4915052;28;20217;-69
2022/09/04 09:42:34;;;;;;;7.57;7.10;;;;;;;30.25;47.61;100025.00;4917639;28;20682;-69
2022/09/04 09:45:40;;;;;;;7.97;7.50;;;;;;;30.02;47.17;100009.66;4991292;28;20203;-67
2022/09/04 09:48:40;;;;;;;8.17;7.47;;;;;;;29.56;47.27;100000.81;4996229;28;20294;-70
2022/09/04 09:51:38;;;;;;;8.23;7.63;;;;;;;29.31;48.12;99992.38;4989519;28;20630;-70
2022/09/04 09:54:50;;;;;;;8.17;7.67;;;;;;;29.06;49.00;99996.44;4996933;28;20731;-70
2022/09/04 09:57:44;;;;;;;8.63;8.03;;;;;;;29.07;49.32;100003.53;4997212;28;20716;-67
2022/09/04 10:00:16;;;;;;;8.63;7.90;;;;;;;29.10;48.94;99992.81;4990186;28;20687;-72
2022/09/04 10:03:26;;;;;;;8.30;7.80;;;;;;;29.28;49.36;99988.34;4985419;28;20640;-66
2022/09/04 10:06:43;;;;;;;8.73;8.33;;;;;;;29.44;48.90;99986.88;4991620;28;20575;-68
2022/09/04 10:09:45;;;;;;;10.53;8.73;;;;;;;29.49;48.58;99989.50;4997298;28;20202;-67
2022/09/04 10:12:40;;;;;;;8.57;7.97;;;;;;;29.42;48.10;99989.09;4974075;28;20209;-65
2022/09/04 10:15:28;;;;;;;8.30;7.50;;;;;;;29.43;48.23;99979.75;4995960;28;20341;-66
2022/09/04 10:18:17;;;;;;;8.23;7.83;;;;;;;29.35;48.66;99971.50;4989339;28;20662;-70
2022/09/04 10:21:09;;;;;;;15.23;9.60;;;;;;;29.37;48.97;99978.28;4992313;28;20671;-67
2022/09/04 10:24:05;;;;;;;26.83;9.10;;;;;;;29.52;49.43;99971.66;4994114;28;20248;-72
2022/09/04 10:26:54;;;;;;;7.63;7.23;;;;;;;29.60;47.76;99969.00;4987578;28;20571;-70
2022/09/04 10:29:37;;;;;;;8.53;7.83;;;;;;;29.82;48.42;99977.25;4995352;28;20197;-71
2022/09/04 10:32:31;;;;;;;7.37;6.97;;;;;;;29.99;45.32;99969.16;4986927;28;20658;-70
2022/09/04 10:35:11;;;;;;;8.00;7.23;;;;;;;29.92;46.50;99968.00;4994137;28;20202;-73
2022/09/04 10:38:01;;;;;;;8.00;7.57;;;;;;;30.07;46.20;99967.59;4993099;28;20626;-67
2022/09/04 10:40:38;;;;;;;7.57;7.07;;;;;;;30.06;45.59;99966.78;4998721;28;20569;-69
2022/09/04 10:43:30;;;;;;;7.90;7.27;;;;;;;29.64;45.71;99963.72;4997979;28;20198;-70
2022/09/04 10:46:10;;;;;;;8.20;7.60;;;;;;;29.95;45.56;99959.13;4992356;28;20214;-67
2022/09/04 10:49:05;;;;;;;8.13;7.73;;;;;;;29.38;46.00;99960.72;4989439;28;20276;-67
2022/09/04 10:51:52;;;;;;;8.70;8.07;;;;;;;29.35;46.72;99960.53;4994882;28;20845;-65
2022/09/04 10:54:53;;;;;;;8.70;7.83;;;;;;;29.43;47.37;99940.66;4997673;28;20222;-70
2022/09/04 10:57:39;;;;;;;8.37;7.80;;;;;;;29.52;47.52;99925.88;4979815;28;20286;-76
2022/09/04 11:00:09;;;;;;;9.13;8.53;;;;;;;29.55;48.04;99924.47;4997748;28;20649;-71
2022/09/04 11:03:23;;;;;;;8.27;7.60;;;;;;;29.63;47.33;99927.31;5001835;28;20194;-73
2022/09/04 11:06:48;;;;;;;8.23;7.73;;;;;;;29.30;46.88;99920.38;4989798;28;20242;-76
2022/09/04 11:09:32;;;;;;;8.60;8.20;;;;;;;28.30;50.60;99911.50;5000123;28;20209;-77
2022/09/04 11:12:24;;;;;;;8.70;8.30;;;;;;;28.72;49.94;99903.03;4996402;28;20198;-73
2022/09/04 11:15:20;;;;;;;9.33;8.43;;;;;;;28.54;50.18;99898.47;4994549;28;20768;-73
2022/09/04 11:18:22;;;;;;;8.10;7.60;;;;;;;28.24;50.44;99901.75;4992477;28;20662;-71
2022/09/04 11:21:21;;;;;;;8.83;8.30;;;;;;;28.54;50.37;99895.75;4988953;28;20191;-68
2022/09/04 11:24:40;;;;;;;9.27;8.77;;;;;;;28.94;48.59;99889.41;4991775;28;20611;-67
2022/09/04 11:27:48;;;;;;;8.50;8.10;;;;;;;29.11;48.19;99873.19;5000735;28;20818;-67
2022/09/04 11:30:18;;;;;;;9.40;8.67;;;;;;;29.30;47.40;99884.81;5004732;28;20213;-68
2022/09/04 11:33:21;;;;;;;8.03;7.47;;;;;;;29.27;47.62;99882.69;4994883;28;20241;-66
2022/09/04 11:36:22;;;;;;;8.13;7.63;;;;;;;29.48;47.33;99881.06;4996407;28;20197;-67
2022/09/04 11:39:27;;;;;;;8.00;7.40;;;;;;;29.55;46.70;99888.88;4992184;28;20261;-68
2022/09/04 11:42:19;;;;;;;8.60;8.10;;;;;;;29.69;46.02;99884.19;4996548;28;20733;-70
2022/09/04 11:45:15;;;;;;;8.13;7.73;;;;;;;29.45;46.00;99884.47;4995775;28;20297;-68
2022/09/04 11:48:12;;;;;;;8.43;7.63;;;;;;;29.45;45.63;99878.16;4997388;28;20288;-70
2022/09/04 11:51:00;;;;;;;8.70;7.83;;;;;;;29.55;45.55;99875.97;4988922;28;20256;-67
2022/09/04 11:53:49;;;;;;;8.17;7.47;;;;;;;29.67;44.69;99865.31;4995621;28;20743;-67
2022/09/04 11:56:48;;;;;;;9.17;8.47;;;;;;;29.56;45.70;99868.59;4993139;28;20621;-67
2022/09/04 11:59:43;;;;;;;9.83;7.87;;;;;;;29.53;46.46;99852.78;4997017;28;20214;-69
2022/09/04 12:02:34;;;;;;;10.33;9.60;;;;;;;29.78;46.30;99847.50;4989381;28;20629;-66
2022/09/04 12:05:16;;;;;;;10.83;9.87;;;;;;;29.64;45.23;99849.50;4988319;28;20202;-70
2022/09/04 12:08:03;;;;;;;7.10;6.70;;;;;;;29.19;47.16;99839.63;4991031;28;21122;-67
2022/09/04 12:10:48;;;;;;;9.80;9.13;;;;;;;29.37;47.56;99832.34;4998658;28;20244;-68
2022/09/04 12:13:51;;;;;;;7.77;7.27;;;;;;;29.29;47.56;99833.91;4989200;28;20265;-71
2022/09/04 12:16:43;;;;;;;8.43;7.83;;;;;;;29.25;47.01;99841.13;4989533;28;20764;-68
2022/09/04 12:19:38;;;;;;;10.30;9.37;;;;;;;29.27;47.25;99836.16;4997380;28;20190;-70
2022/09/04 12:22:36;;;;;;;12.13;10.70;;;;;;;29.21;49.88;99826.44;4996675;28;20290;-66
2022/09/04 12:25:31;;;;;;;18.13;11.37;;;;;;;29.30;49.48;99841.00;4995840;28;20350;-69
2022/09/04 12:28:33;;;;;;;11.23;10.07;;;;;;;29.51;48.84;99835.84;4944564;28;20235;-68
2022/09/04 12:31:21;;;;;;;9.03;7.93;;;;;;;29.04;48.55;99834.53;4990745;28;20341;-68
2022/09/04 12:34:12;;;;;;;8.03;7.53;;;;;;;29.36;48.37;99828.84;4991956;28;20708;-65
2022/09/04 12:37:24;;;;;;;8.10;7.60;;;;;;;29.57;46.94;99831.88;4993622;28;20243;-65
2022/09/04 12:40:13;;;;;;;6.87;6.57;;;;;;;29.72;46.90;99831.50;4993614;28;20202;-65
2022/09/04 12:42:47;;;;;;;7.43;7.03;;;;;;;29.75;46.54;99828.94;4990524;28;20273;-70
2022/09/04 12:45:24;;;;;;;7.50;7.10;;;;;;;29.73;46.60;99820.25;4997612;28;20723;-65
2022/09/04 12:48:02;;;;;;;7.53;7.13;;;;;;;29.76;46.67;99825.09;4995660;28;20224;-65
2022/09/04 12:50:38;;;;;;;8.03;7.60;;;;;;;29.58;47.26;99793.25;4993646;28;20240;-65
2022/09/04 12:53:30;;;;;;;7.10;6.70;;;;;;;29.70;46.01;99831.81;4990195;28;20599;-66
2022/09/04 12:56:09;;;;;;;6.77;6.47;;;;;;;29.35;47.05;99824.44;4993581;28;20277;-64